Terminal Aerodrome Forecast
Issued by NWS

Home | Current Version | Previous Version | Text Only | Print | Product List | Glossary On
Versions: 1 2 3 4 5 6 7 8 9 10 11 12
162
FTUS46 KMTR 120540
TAFSJC
TAF
KSJC 120540Z 1206/1306 33004KT P6SM FEW090 SCT140 BKN240
     FM120900 VRB03KT P6SM SCT150
     FM122100 31008KT P6SM SCT200
     FM130500 31003KT P6SM SCT200=

USA.gov is the U.S. government's official web portal to all federal, state and local government web resources and services.